Airport View

Enter AWOS ICAO identifier for current METAR.

ex. KFNL

KEGE 051256Z AUTO 00000KT 10SM CLR 09/01 A3028 RMK AO2 SLP189 T00890011 PNO $

5 Aug 2020 13:46

Frequency: 135.575

Phone: 970-524-7386

Other Area AWOS: K5SM - KASE - K20V - KCCU

TAF KEGE 051139Z 0512/0612 VRB04KT P6SM FEW120 FEW250 FM051900 24012G21KT P6SM FEW150 SCT200 FM060400 10007KT P6SM FEW120 SCT250